^^
Meteo Knjazevac Station Historical Data
Daily Summary for May 16, 2022 Units:  Both    English   Metric
Daily Weekly Monthly Yearly Custom
  High: Low: Average:
Temperature: 85.6 °F /  29.8 °C 44.2 °F /  6.8 °C 66.4 °F /  19.1 °C
Dew Point: 57.4 °F /  14.1 °C 40.3 °F /  4.6 °C 49.9 °F /  9.9 °C
Humidity: 89% 34% 60%
Wind Speed: 8mph /  12.9km/h - 2.2mph /  3.5km/h
Wind Gust: 12mph /  19.3km/h - -
Wind- - WSW
Pressure: 30.17 in /  1021.6 hPa 30.06 in /  1017.8 hPa -
Precipitation: 0.00 in /  0 mm    
Historical Graphs
 
 
Tabular Data for May 16, 2022
Time Temperature Dew Point Pressure Wind Wind Speed Wind Gust Humidity Rainfall Rate (Hourly) solar Conditions
00:00 54.7 °F /  12.6 °C 45.8 °F /  7.7 °C 30.15in /  1020.9hPa WNW 1mph /  1.6km/h 2mph /  3.2km/h 72% 0.00in /  0mm 0 W/m2
00:10 54 °F /  12.2 °C 45.5 °F /  7.5 °C 30.15in /  1020.9hPa Calm   2mph /  3.2km/h 73% 0.00in /  0mm 0 W/m2
00:20 53.2 °F /  11.8 °C 44.8 °F /  7.1 °C 30.15in /  1020.9hPa West 1mph /  1.6km/h 2mph /  3.2km/h 73% 0.00in /  0mm 0 W/m2
00:30 52.2 °F /  11.2 °C 44.2 °F /  6.8 °C 30.15in /  1020.9hPa Calm   2mph /  3.2km/h 74% 0.00in /  0mm 0 W/m2
00:40 51.7 °F /  10.9 °C 44 °F /  6.7 °C 30.15in /  1020.9hPa Calm   2mph /  3.2km/h 75% 0.00in /  0mm 0 W/m2
00:50 51.3 °F /  10.7 °C 43.6 °F /  6.4 °C 30.15in /  1020.9hPa West 1mph /  1.6km/h 3mph /  4.8km/h 75% 0.00in /  0mm 0 W/m2
01:00 50.6 °F /  10.3 °C 43.6 °F /  6.4 °C 30.15in /  1020.9hPa WSW 2mph /  3.2km/h 3mph /  4.8km/h 77% 0.00in /  0mm 0 W/m2
01:10 50.2 °F /  10.1 °C 43.2 °F /  6.2 °C 30.15in /  1020.9hPa WNW 2mph /  3.2km/h 5mph /  8km/h 77% 0.00in /  0mm 0 W/m2
01:20 50.2 °F /  10.1 °C 43.6 °F /  6.4 °C 30.15in /  1020.9hPa WNW 1mph /  1.6km/h 5mph /  8km/h 78% 0.00in /  0mm 0 W/m2
01:30 49.9 °F /  9.9 °C 43.3 °F /  6.3 °C 30.15in /  1020.9hPa NNW 1mph /  1.6km/h 2mph /  3.2km/h 78% 0.00in /  0mm 0 W/m2
01:40 49.5 °F /  9.7 °C 42.9 °F /  6.1 °C 30.15in /  1020.9hPa NW 1mph /  1.6km/h 2mph /  3.2km/h 78% 0.00in /  0mm 0 W/m2
01:50 48.9 °F /  9.4 °C 42.7 °F /  5.9 °C 30.15in /  1020.9hPa West 1mph /  1.6km/h 3mph /  4.8km/h 79% 0.00in /  0mm 0 W/m2
02:00 48.7 °F /  9.3 °C 42.5 °F /  5.8 °C 30.15in /  1020.9hPa West 2mph /  3.2km/h 4mph /  6.4km/h 79% 0.00in /  0mm 0 W/m2
02:10 48.7 °F /  9.3 °C 42.8 °F /  6 °C 30.15in /  1020.9hPa West 2mph /  3.2km/h 3mph /  4.8km/h 80% 0.00in /  0mm 0 W/m2
02:20 48.6 °F /  9.2 °C 42.7 °F /  5.9 °C 30.15in /  1020.9hPa WNW 1mph /  1.6km/h 3mph /  4.8km/h 80% 0.00in /  0mm 0 W/m2
02:30 48.2 °F /  9 °C 42.3 °F /  5.7 °C 30.15in /  1020.9hPa West 1mph /  1.6km/h 3mph /  4.8km/h 80% 0.00in /  0mm 0 W/m2
02:40 47.5 °F /  8.6 °C 41.7 °F /  5.4 °C 30.15in /  1020.9hPa WSW 1mph /  1.6km/h 3mph /  4.8km/h 80% 0.00in /  0mm 0 W/m2
02:50 47.3 °F /  8.5 °C 41.8 °F /  5.4 °C 30.15in /  1020.9hPa West 3mph /  4.8km/h 6mph /  9.7km/h 81% 0.00in /  0mm 0 W/m2
03:00 47.3 °F /  8.5 °C 41.8 °F /  5.4 °C 30.15in /  1020.9hPa West 1mph /  1.6km/h 6mph /  9.7km/h 81% 0.00in /  0mm 0 W/m2
03:10 47.1 °F /  8.4 °C 41.6 °F /  5.3 °C 30.15in /  1020.9hPa West 2mph /  3.2km/h 3mph /  4.8km/h 81% 0.00in /  0mm 0 W/m2
03:20 46.9 °F /  8.3 °C 42 °F /  5.6 °C 30.15in /  1020.9hPa West 2mph /  3.2km/h 3mph /  4.8km/h 83% 0.00in /  0mm 0 W/m2
03:30 46.9 °F /  8.3 °C 42 °F /  5.6 °C 30.15in /  1020.9hPa Calm   3mph /  4.8km/h 83% 0.00in /  0mm 0 W/m2
03:40 46.6 °F /  8.1 °C 41.7 °F /  5.4 °C 30.15in /  1020.9hPa West 1mph /  1.6km/h 3mph /  4.8km/h 83% 0.00in /  0mm 0 W/m2
03:50 46.2 °F /  7.9 °C 41.3 °F /  5.2 °C 30.15in /  1020.9hPa West 2mph /  3.2km/h 4mph /  6.4km/h 83% 0.00in /  0mm 0 W/m2
04:00 46 °F /  7.8 °C 41.5 °F /  5.3 °C 30.15in /  1020.9hPa West 2mph /  3.2km/h 3mph /  4.8km/h 84% 0.00in /  0mm 0 W/m2
04:10 45.7 °F /  7.6 °C 41.1 °F /  5.1 °C 30.15in /  1020.9hPa West 1mph /  1.6km/h 3mph /  4.8km/h 84% 0.00in /  0mm 0 W/m2
04:20 45.3 °F /  7.4 °C 40.8 °F /  4.9 °C 30.15in /  1020.9hPa West 1mph /  1.6km/h 3mph /  4.8km/h 84% 0.00in /  0mm 0 W/m2
04:30 45.1 °F /  7.3 °C 40.6 °F /  4.8 °C 30.15in /  1020.9hPa West 1mph /  1.6km/h 2mph /  3.2km/h 84% 0.00in /  0mm 0 W/m2
04:40 45 °F /  7.2 °C 40.7 °F /  4.8 °C 30.15in /  1020.9hPa WNW 1mph /  1.6km/h 3mph /  4.8km/h 85% 0.00in /  0mm 0 W/m2
04:50 45 °F /  7.2 °C 40.7 °F /  4.8 °C 30.15in /  1020.9hPa West 2mph /  3.2km/h 5mph /  8km/h 85% 0.00in /  0mm 0 W/m2
05:00 44.8 °F /  7.1 °C 40.8 °F /  4.9 °C 30.16in /  1021.2hPa West 2mph /  3.2km/h 5mph /  8km/h 86% 0.00in /  0mm 0 W/m2
05:10 44.6 °F /  7 °C 40.7 °F /  4.8 °C 30.16in /  1021.2hPa Calm   4mph /  6.4km/h 86% 0.00in /  0mm 5 W/m2
05:20 44.4 °F /  6.9 °C 40.5 °F /  4.7 °C 30.16in /  1021.2hPa WNW 1mph /  1.6km/h 2mph /  3.2km/h 86% 0.00in /  0mm 11 W/m2
05:30 44.4 °F /  6.9 °C 40.5 °F /  4.7 °C 30.16in /  1021.2hPa West 2mph /  3.2km/h 3mph /  4.8km/h 86% 0.00in /  0mm 19 W/m2
05:40 44.2 °F /  6.8 °C 40.3 °F /  4.6 °C 30.16in /  1021.2hPa West 2mph /  3.2km/h 3mph /  4.8km/h 86% 0.00in /  0mm 27 W/m2
05:50 44.6 °F /  7 °C 41.6 °F /  5.3 °C 30.17in /  1021.6hPa WNW 2mph /  3.2km/h 4mph /  6.4km/h 89% 0.00in /  0mm 35 W/m2
06:00 45 °F /  7.2 °C 41.6 °F /  5.3 °C 30.17in /  1021.6hPa WNW 1mph /  1.6km/h 3mph /  4.8km/h 88% 0.00in /  0mm 66 W/m2
06:10 45.1 °F /  7.3 °C 41.8 °F /  5.4 °C 30.17in /  1021.6hPa West 2mph /  3.2km/h 5mph /  8km/h 88% 0.00in /  0mm 87 W/m2
06:20 45.3 °F /  7.4 °C 42 °F /  5.6 °C 30.17in /  1021.6hPa West 2mph /  3.2km/h 3mph /  4.8km/h 88% 0.00in /  0mm 108 W/m2
06:30 45.7 °F /  7.6 °C 42.6 °F /  5.9 °C 30.17in /  1021.6hPa West 2mph /  3.2km/h 3mph /  4.8km/h 89% 0.00in /  0mm 135 W/m2
06:40 46 °F /  7.8 °C 43 °F /  6.1 °C 30.17in /  1021.6hPa West 1mph /  1.6km/h 3mph /  4.8km/h 89% 0.00in /  0mm 161 W/m2
06:50 46.7 °F /  8.2 °C 43.7 °F /  6.5 °C 30.17in /  1021.6hPa West 2mph /  3.2km/h 6mph /  9.7km/h 89% 0.00in /  0mm 191 W/m2
07:00 48 °F /  8.9 °C 44.9 °F /  7.2 °C 30.17in /  1021.6hPa West 2mph /  3.2km/h 5mph /  8km/h 89% 0.00in /  0mm 218 W/m2
07:10 48.9 °F /  9.4 °C 45.5 °F /  7.5 °C 30.17in /  1021.6hPa West 1mph /  1.6km/h 4mph /  6.4km/h 88% 0.00in /  0mm 246 W/m2
07:20 50 °F /  10 °C 46 °F /  7.8 °C 30.17in /  1021.6hPa West 1mph /  1.6km/h 4mph /  6.4km/h 86% 0.00in /  0mm 279 W/m2
07:30 51.4 °F /  10.8 °C 47.1 °F /  8.4 °C 30.17in /  1021.6hPa West 2mph /  3.2km/h 4mph /  6.4km/h 85% 0.00in /  0mm 311 W/m2
07:40 52.5 °F /  11.4 °C 48.1 °F /  8.9 °C 30.17in /  1021.6hPa Calm   3mph /  4.8km/h 85% 0.00in /  0mm 342 W/m2
07:50 53.9 °F /  12.2 °C 48.9 °F /  9.4 °C 30.17in /  1021.6hPa NW 1mph /  1.6km/h 4mph /  6.4km/h 83% 0.00in /  0mm 374 W/m2
08:00 55.2 °F /  12.9 °C 49.1 °F /  9.5 °C 30.17in /  1021.6hPa WNW 2mph /  3.2km/h 4mph /  6.4km/h 80% 0.00in /  0mm 407 W/m2
08:10 56.6 °F /  13.7 °C 50.5 °F /  10.3 °C 30.17in /  1021.6hPa WSW 1mph /  1.6km/h 3mph /  4.8km/h 80% 0.00in /  0mm 439 W/m2
08:20 58.4 °F /  14.7 °C 51.6 °F /  10.9 °C 30.17in /  1021.6hPa WSW 2mph /  3.2km/h 3mph /  4.8km/h 78% 0.00in /  0mm 474 W/m2
08:30 61.3 °F /  16.3 °C 53 °F /  11.7 °C 30.17in /  1021.6hPa WSW 1mph /  1.6km/h 3mph /  4.8km/h 74% 0.00in /  0mm 507 W/m2
08:40 63.6 °F /  17.6 °C 53.7 °F /  12.1 °C 30.17in /  1021.6hPa Calm   3mph /  4.8km/h 70% 0.00in /  0mm 548 W/m2
08:50 65.8 °F /  18.8 °C 54.9 °F /  12.7 °C 30.17in /  1021.6hPa South 1mph /  1.6km/h 4mph /  6.4km/h 68% 0.00in /  0mm 585 W/m2
09:00 67.4 °F /  19.7 °C 56.1 °F /  13.4 °C 30.17in /  1021.6hPa SW 1mph /  1.6km/h 4mph /  6.4km/h 67% 0.00in /  0mm 619 W/m2
09:10 69.2 °F /  20.7 °C 56.1 °F /  13.4 °C 30.17in /  1021.6hPa South 2mph /  3.2km/h 4mph /  6.4km/h 63% 0.00in /  0mm 648 W/m2
09:20 70.7 °F /  21.5 °C 55.7 °F /  13.2 °C 30.17in /  1021.6hPa NE 1mph /  1.6km/h 6mph /  9.7km/h 59% 0.00in /  0mm 677 W/m2
09:30 71.9 °F /  22.2 °C 56.8 °F /  13.8 °C 30.17in /  1021.6hPa SSE 1mph /  1.6km/h 5mph /  8km/h 59% 0.00in /  0mm 709 W/m2
09:40 73.2 °F /  22.9 °C 56.1 °F /  13.4 °C 30.16in /  1021.2hPa SSE 3mph /  4.8km/h 6mph /  9.7km/h 55% 0.00in /  0mm 733 W/m2
09:50 74.1 °F /  23.4 °C 55.4 °F /  13 °C 30.16in /  1021.2hPa South 1mph /  1.6km/h 5mph /  8km/h 52% 0.00in /  0mm 762 W/m2
10:00 75 °F /  23.9 °C 55.1 °F /  12.8 °C 30.16in /  1021.2hPa Calm   5mph /  8km/h 50% 0.00in /  0mm 788 W/m2
10:10 75.7 °F /  24.3 °C 56.9 °F /  13.8 °C 30.16in /  1021.2hPa NNW 1mph /  1.6km/h 3mph /  4.8km/h 52% 0.00in /  0mm 808 W/m2
10:20 76.8 °F /  24.9 °C 55.6 °F /  13.1 °C 30.16in /  1021.2hPa North 1mph /  1.6km/h 7mph /  11.3km/h 48% 0.00in /  0mm 829 W/m2
10:30 77.9 °F /  25.5 °C 56 °F /  13.3 °C 30.15in /  1020.9hPa NNE 3mph /  4.8km/h 7mph /  11.3km/h 47% 0.00in /  0mm 847 W/m2
10:40 78.3 °F /  25.7 °C 54.6 °F /  12.6 °C 30.15in /  1020.9hPa NNE 1mph /  1.6km/h 8mph /  12.9km/h 44% 0.00in /  0mm 125 W/m2
10:50 79.2 °F /  26.2 °C 55.4 °F /  13 °C 30.15in /  1020.9hPa NE 6mph /  9.7km/h 7mph /  11.3km/h 44% 0.00in /  0mm 878 W/m2
11:00 79.5 °F /  26.4 °C 54.4 °F /  12.4 °C 30.15in /  1020.9hPa South 2mph /  3.2km/h 7mph /  11.3km/h 42% 0.00in /  0mm 892 W/m2
11:10 80 °F /  26.7 °C 55.5 °F /  13.1 °C 30.15in /  1020.9hPa NNE 2mph /  3.2km/h 10mph /  16.1km/h 43% 0.00in /  0mm 642 W/m2
11:20 80.4 °F /  26.9 °C 53.9 °F /  12.2 °C 30.14in /  1020.5hPa South 5mph /  8km/h 9mph /  14.5km/h 40% 0.00in /  0mm 915 W/m2
11:30 80.8 °F /  27.1 °C 55.5 °F /  13.1 °C 30.15in /  1020.9hPa NNE 1mph /  1.6km/h 10mph /  16.1km/h 42% 0.00in /  0mm 924 W/m2
11:40 80.6 °F /  27 °C 55.4 °F /  13 °C 30.14in /  1020.5hPa ENE 1mph /  1.6km/h 10mph /  16.1km/h 42% 0.00in /  0mm 932 W/m2
11:50 80.8 °F /  27.1 °C 54.2 °F /  12.3 °C 30.14in /  1020.5hPa South 3mph /  4.8km/h 7mph /  11.3km/h 40% 0.00in /  0mm 938 W/m2
12:00 81.3 °F /  27.4 °C 54.7 °F /  12.6 °C 30.14in /  1020.5hPa SSE 3mph /  4.8km/h 9mph /  14.5km/h 40% 0.00in /  0mm 943 W/m2
12:10 81.8 °F /  27.7 °C 56.5 °F /  13.6 °C 30.13in /  1020.2hPa East 6mph /  9.7km/h 12mph /  19.3km/h 42% 0.00in /  0mm 946 W/m2
12:20 82.2 °F /  27.9 °C 55.5 °F /  13.1 °C 30.13in /  1020.2hPa North 2mph /  3.2km/h 9mph /  14.5km/h 40% 0.00in /  0mm 948 W/m2
12:30 82.4 °F /  28 °C 55 °F /  12.8 °C 30.13in /  1020.2hPa NNE 1mph /  1.6km/h 8mph /  12.9km/h 39% 0.00in /  0mm 380 W/m2
12:40 81.3 °F /  27.4 °C 54.7 °F /  12.6 °C 30.13in /  1020.2hPa SSW 3mph /  4.8km/h 7mph /  11.3km/h 40% 0.00in /  0mm 946 W/m2
12:50 81.9 °F /  27.7 °C 56.5 °F /  13.6 °C 30.12in /  1019.9hPa South 3mph /  4.8km/h 7mph /  11.3km/h 42% 0.00in /  0mm 943 W/m2
13:00 82.8 °F /  28.2 °C 57.3 °F /  14.1 °C 30.12in /  1019.9hPa SW 2mph /  3.2km/h 12mph /  19.3km/h 42% 0.00in /  0mm 939 W/m2
13:10 83.3 °F /  28.5 °C 55.8 °F /  13.2 °C 30.12in /  1019.9hPa SSW 5mph /  8km/h 12mph /  19.3km/h 39% 0.00in /  0mm 932 W/m2
13:20 83.1 °F /  28.4 °C 55.6 °F /  13.1 °C 30.12in /  1019.9hPa SSW 3mph /  4.8km/h 10mph /  16.1km/h 39% 0.00in /  0mm 925 W/m2
13:30 83.7 °F /  28.7 °C 56.8 °F /  13.8 °C 30.11in /  1019.5hPa SW 3mph /  4.8km/h 10mph /  16.1km/h 40% 0.00in /  0mm 915 W/m2
13:40 84.4 °F /  29.1 °C 57.4 °F /  14.1 °C 30.11in /  1019.5hPa West 2mph /  3.2km/h 8mph /  12.9km/h 40% 0.00in /  0mm 905 W/m2
13:50 84.7 °F /  29.3 °C 57 °F /  13.9 °C 30.11in /  1019.5hPa WNW 3mph /  4.8km/h 8mph /  12.9km/h 39% 0.00in /  0mm 892 W/m2
14:00 85.3 °F /  29.6 °C 56.8 °F /  13.8 °C 30.11in /  1019.5hPa WSW 2mph /  3.2km/h 7mph /  11.3km/h 38% 0.00in /  0mm 225 W/m2
14:10 84.4 °F /  29.1 °C 56 °F /  13.3 °C 30.10in /  1019.2hPa SW 1mph /  1.6km/h 7mph /  11.3km/h 38% 0.00in /  0mm 230 W/m2
14:20 84.4 °F /  29.1 °C 55.3 °F /  12.9 °C 30.10in /  1019.2hPa NNW 8mph /  12.9km/h 12mph /  19.3km/h 37% 0.00in /  0mm 847 W/m2
14:30 84 °F /  28.9 °C 56.4 °F /  13.6 °C 30.10in /  1019.2hPa NNW 3mph /  4.8km/h 12mph /  19.3km/h 39% 0.00in /  0mm 307 W/m2
14:40 83.3 °F /  28.5 °C 55.8 °F /  13.2 °C 30.09in /  1018.8hPa North 3mph /  4.8km/h 7mph /  11.3km/h 39% 0.00in /  0mm 190 W/m2
14:50 82.4 °F /  28 °C 55 °F /  12.8 °C 30.09in /  1018.8hPa NW 2mph /  3.2km/h 6mph /  9.7km/h 39% 0.00in /  0mm 194 W/m2
15:00 82.9 °F /  28.3 °C 55.4 °F /  13 °C 30.09in /  1018.8hPa WNW 2mph /  3.2km/h 5mph /  8km/h 39% 0.00in /  0mm 769 W/m2
15:10 84 °F /  28.9 °C 55.7 °F /  13.2 °C 30.08in /  1018.5hPa West 1mph /  1.6km/h 5mph /  8km/h 38% 0.00in /  0mm 746 W/m2
15:20 84.7 °F /  29.3 °C 56.3 °F /  13.5 °C 30.08in /  1018.5hPa WSW 3mph /  4.8km/h 8mph /  12.9km/h 38% 0.00in /  0mm 723 W/m2
15:30 85.1 °F /  29.5 °C 56.6 °F /  13.7 °C 30.08in /  1018.5hPa West 3mph /  4.8km/h 10mph /  16.1km/h 38% 0.00in /  0mm 698 W/m2
15:40 85.5 °F /  29.7 °C 56.2 °F /  13.4 °C 30.08in /  1018.5hPa WNW 5mph /  8km/h 8mph /  12.9km/h 37% 0.00in /  0mm 672 W/m2
15:50 85.6 °F /  29.8 °C 54.8 °F /  12.7 °C 30.08in /  1018.5hPa West 5mph /  8km/h 9mph /  14.5km/h 35% 0.00in /  0mm 646 W/m2
16:00 85.5 °F /  29.7 °C 54.7 °F /  12.6 °C 30.08in /  1018.5hPa WNW 5mph /  8km/h 8mph /  12.9km/h 35% 0.00in /  0mm 618 W/m2
16:10 85.6 °F /  29.8 °C 54.8 °F /  12.7 °C 30.08in /  1018.5hPa NW 5mph /  8km/h 9mph /  14.5km/h 35% 0.00in /  0mm 590 W/m2
16:20 85.6 °F /  29.8 °C 54.8 °F /  12.7 °C 30.08in /  1018.5hPa WNW 3mph /  4.8km/h 8mph /  12.9km/h 35% 0.00in /  0mm 561 W/m2
16:30 85.6 °F /  29.8 °C 54.8 °F /  12.7 °C 30.08in /  1018.5hPa WNW 5mph /  8km/h 8mph /  12.9km/h 35% 0.00in /  0mm 532 W/m2
16:40 85.3 °F /  29.6 °C 54.5 °F /  12.5 °C 30.07in /  1018.2hPa West 2mph /  3.2km/h 5mph /  8km/h 35% 0.00in /  0mm 502 W/m2
16:50 85.3 °F /  29.6 °C 54.5 °F /  12.5 °C 30.07in /  1018.2hPa West 3mph /  4.8km/h 12mph /  19.3km/h 35% 0.00in /  0mm 467 W/m2
17:00 85.5 °F /  29.7 °C 53.9 °F /  12.2 °C 30.07in /  1018.2hPa WNW 5mph /  8km/h 7mph /  11.3km/h 34% 0.00in /  0mm 423 W/m2
17:10 85.3 °F /  29.6 °C 54.5 °F /  12.5 °C 30.07in /  1018.2hPa West 5mph /  8km/h 8mph /  12.9km/h 35% 0.00in /  0mm 374 W/m2
17:20 85.1 °F /  29.5 °C 54.4 °F /  12.4 °C 30.06in /  1017.8hPa West 5mph /  8km/h 10mph /  16.1km/h 35% 0.00in /  0mm 346 W/m2
17:30 84.9 °F /  29.4 °C 54.2 °F /  12.3 °C 30.06in /  1017.8hPa West 3mph /  4.8km/h 8mph /  12.9km/h 35% 0.00in /  0mm 318 W/m2
17:40 84.9 °F /  29.4 °C 54.2 °F /  12.3 °C 30.06in /  1017.8hPa WSW 5mph /  8km/h 7mph /  11.3km/h 35% 0.00in /  0mm 286 W/m2
17:50 84.6 °F /  29.2 °C 53.9 °F /  12.2 °C 30.06in /  1017.8hPa West 5mph /  8km/h 10mph /  16.1km/h 35% 0.00in /  0mm 254 W/m2
18:00 84.4 °F /  29.1 °C 53.7 °F /  12.1 °C 30.06in /  1017.8hPa West 6mph /  9.7km/h 10mph /  16.1km/h 35% 0.00in /  0mm 225 W/m2
18:10 84 °F /  28.9 °C 52.6 °F /  11.4 °C 30.06in /  1017.8hPa West 5mph /  8km/h 9mph /  14.5km/h 34% 0.00in /  0mm 198 W/m2
18:20 83.7 °F /  28.7 °C 53.1 °F /  11.7 °C 30.06in /  1017.8hPa WSW 2mph /  3.2km/h 7mph /  11.3km/h 35% 0.00in /  0mm 169 W/m2
18:30 83.7 °F /  28.7 °C 53.1 °F /  11.7 °C 30.06in /  1017.8hPa West 2mph /  3.2km/h 8mph /  12.9km/h 35% 0.00in /  0mm 138 W/m2
18:40 83.3 °F /  28.5 °C 52.8 °F /  11.6 °C 30.06in /  1017.8hPa West 3mph /  4.8km/h 7mph /  11.3km/h 35% 0.00in /  0mm 111 W/m2
18:50 82.8 °F /  28.2 °C 53.8 °F /  12.1 °C 30.06in /  1017.8hPa WSW 3mph /  4.8km/h 7mph /  11.3km/h 37% 0.00in /  0mm 88 W/m2
Knjazevac, Serbia
Compliments of Weather Underground - 2 mb